Norwegian Jade — C6WK7 — position and weather

sailwx.info

Track history (hours):
 
Tides and Currents Weather Stations Pressure Air Temp Water Temp Dewpoint Dewpoint Depression Visibility Wind Speed Wind Dir Waves Ship Positions

Norwegian Jade

Last reported at 2017-Jun-29 02:00 UTC. Time now 2017-Jun-29 02:02 UTC.
Position N 70°13' E 021°09'.

Length 294 m; draft 8.6 m.

Type: Passenger vessel. MMSI: 308416000.

Date/timePositionNaut miles runAvg speedWind from/ knotsBaromVisibWave heightAir tempDewpointWater temp
2017-Jun-29 02:00N 70°13' E 021°09'714.2
2017-Jun-29 01:30N 70°18' E 021°26'714.2
2017-Jun-29 01:00N 70°24' E 021°37'714.0
2017-Jun-29 00:30N 70°25' E 021°57'713.9
2017-Jun-29 00:01N 70°27' E 022°17'714.2
2017-Jun-28 23:30N 70°28' E 022°39'714.9
2017-Jun-28 23:00N 70°31' E 022°59'815.0
2017-Jun-28 22:30N 70°36' E 023°15'917.0
2017-Jun-28 22:00N 70°43' E 023°31'816.5
2017-Jun-28 21:30N 70°49' E 023°49'816.4
2017-Jun-28 21:00N 70°54' E 024°08'816.6
2017-Jun-28 20:30N 71°00' E 024°26'714.1
2017-Jun-28 20:00N 71°01' E 024°48'815.8
2017-Jun-28 19:30N 70°60' E 025°12'714.2
2017-Jun-28 19:00N 70°56' E 025°31'612.4
2017-Jun-28 18:30N 70°56' E 025°50'4 7.1
2017-Jun-28 17:58N 70°59' E 025°58'0 0.0
2017-Jun-28 17:28N 70°59' E 025°58'0 0.0
2017-Jun-28 16:58N 70°59' E 025°58'0 0.0
2017-Jun-28 16:28N 70°59' E 025°58'0 0.0
2017-Jun-28 15:58N 70°59' E 025°58'0 0.0
2017-Jun-28 15:28N 70°59' E 025°58'0 0.0
2017-Jun-28 14:58N 70°59' E 025°58'0 0.0
2017-Jun-28 13:58N 70°59' E 025°58'0 0.0
2017-Jun-28 13:28N 70°59' E 025°58'0 0.0
2017-Jun-28 12:58N 70°59' E 025°58'0 0.0
2017-Jun-28 12:28N 70°59' E 025°58'0 0.0
2017-Jun-28 11:58N 70°59' E 025°58'0 0.0
2017-Jun-28 11:28N 70°59' E 025°58'0 0.0
2017-Jun-28 10:58N 70°59' E 025°58'0 0.0
2017-Jun-28 10:28N 70°59' E 025°58'0 0.0
2017-Jun-28 09:58N 70°59' E 025°58'0 0.1
2017-Jun-28 09:30N 70°59' E 025°58'2 3.1
2017-Jun-28 09:00N 70°58' E 025°59'510.9
2017-Jun-28 08:30N 70°59' E 026°15'612.8
2017-Jun-28 08:00N 71°06' E 026°15'815.0
2017-Jun-28 07:30N 71°11' E 025°58'816.8
2017-Jun-28 07:00N 71°13' E 025°33'918.3
2017-Jun-28 06:30N 71°12' E 025°05'1122.1
2017-Jun-28 06:00N 71°11' E 024°31'1122.3
2017-Jun-28 05:30N 71°10' E 023°57'1122.2
2017-Jun-28 05:00N 71°09' E 023°22'1122.0
2017-Jun-28 04:31N 71°07' E 022°49'1122.7
2017-Jun-28 04:00N 71°01' E 022°19'1122.4
2017-Jun-28 03:30N 70°55' E 021°48'2922.2
2017-Jun-28 02:12N 70°41' E 020°32'422.7
2017-Jun-28 02:00N 70°39' E 020°20'1122.1
2017-Jun-28 01:30N 70°34' E 019°51'1122.3
2017-Jun-28 01:00N 70°28' E 019°21'1122.4
2017-Jun-28 00:30N 70°22' E 018°54'1224.1
2017-Jun-28 00:00N 70°15' E 018°25'1223.9
2017-Jun-27 23:30N 70°07' E 017°58'1223.8
2017-Jun-27 23:00N 69°59' E 017°32'6422.1
2017-Jun-27 23:00N 69°54' E 017°24'714.1 280 / 121010.027.0 8.0 12.0
2017-Jun-27 22:30N 69°52' E 017°05'1223.7
2017-Jun-27 22:00N 69°45' E 016°38'1223.8
2017-Jun-27 21:30N 69°38' E 016°09'1224.2
2017-Jun-27 21:00N 69°31' E 015°42'1223.8
2017-Jun-27 20:30N 69°23' E 015°14'1223.8
2017-Jun-27 20:00N 69°16' E 014°48'1223.8
2017-Jun-27 19:30N 69°08' E 014°25'1223.6
2017-Jun-27 19:00N 68°58' E 014°05'1123.1
2017-Jun-27 18:31N 68°49' E 013°47'1223.2
2017-Jun-27 18:00N 68°39' E 013°31'1223.2
2017-Jun-27 17:30N 68°28' E 013°15'1223.4
2017-Jun-27 17:00N 68°18' E 013°02'1223.7
2017-Jun-27 16:30N 68°07' E 012°48'1122.9
2017-Jun-27 16:00N 67°56' E 012°42'816.0
2017-Jun-27 15:30N 67°50' E 012°56'1121.9
2017-Jun-27 15:00N 67°57' E 013°18'1212.1
2017-Jun-27 14:00N 68°07' E 013°36'0 0.3
2017-Jun-27 13:30N 68°07' E 013°36'0 0.0
2017-Jun-27 13:00N 68°07' E 013°36'0 0.0
2017-Jun-27 12:31N 68°07' E 013°36'0 0.0
2017-Jun-27 12:00N 68°07' E 013°36'0 0.0
2017-Jun-27 11:30N 68°07' E 013°36'0 0.0
2017-Jun-27 11:00N 68°07' E 013°36'0 0.0
2017-Jun-27 10:30N 68°07' E 013°36'0 0.0
2017-Jun-27 10:00N 68°07' E 013°36'0 0.0
2017-Jun-27 09:29N 68°07' E 013°36'0 0.0
2017-Jun-27 09:00N 68°07' E 013°36'0 0.0
2017-Jun-27 08:30N 68°07' E 013°36'0 0.0
2017-Jun-27 08:00N 68°07' E 013°36'0 0.0
2017-Jun-27 07:30N 68°07' E 013°36'0 0.0
2017-Jun-27 07:00N 68°07' E 013°36'0 0.0
2017-Jun-27 06:30N 68°07' E 013°36'0 0.0
2017-Jun-27 06:00N 68°07' E 013°36'0 0.0
2017-Jun-27 05:30N 68°07' E 013°36'0 0.0
2017-Jun-27 05:01N 68°07' E 013°36'0 0.0
2017-Jun-27 04:30N 68°07' E 013°36'0 0.0
2017-Jun-27 04:00N 68°07' E 013°36'0 0.0
2017-Jun-27 03:31N 68°07' E 013°36'4 7.8
2017-Jun-27 03:00N 68°03' E 013°35'5 8.9
2017-Jun-27 02:30N 67°59' E 013°32'4 8.4
2017-Jun-27 02:00N 67°55' E 013°34'4 8.0
2017-Jun-27 01:30N 67°51' E 013°37'4 7.6
2017-Jun-27 01:00N 67°47' E 013°37'4 7.6
2017-Jun-27 00:30N 67°43' E 013°35'4 7.5
2017-Jun-27 00:00N 67°40' E 013°33'4 7.5
2017-Jun-26 23:31N 67°36' E 013°31'4 7.7
2017-Jun-26 23:01N 67°32' E 013°29'4 7.9
2017-Jun-26 22:30N 67°28' E 013°26'4 7.9
2017-Jun-26 22:00N 67°25' E 013°24'4 7.7
2017-Jun-26 21:30N 67°21' E 013°22'4 7.8
2017-Jun-26 21:00N 67°17' E 013°20'4 7.8
2017-Jun-26 20:30N 67°13' E 013°20'4 7.5
2017-Jun-26 20:00N 67°09' E 013°22'4 7.1
2017-Jun-26 19:30N 67°06' E 013°23'4 7.2
2017-Jun-26 19:00N 67°02' E 013°25'4 7.1
2017-Jun-26 18:30N 66°59' E 013°27'5 9.6
2017-Jun-26 18:00N 66°54' E 013°30'4 7.7
2017-Jun-26 17:30N 66°52' E 013°39'2 5.0
2017-Jun-26 17:00N 66°50' E 013°38'714.8
2017-Jun-26 16:30N 66°47' E 013°20'3 6.0
2017-Jun-26 16:00N 66°44' E 013°20'510.3
2017-Jun-26 15:30N 66°43' E 013°33'4 7.4
2017-Jun-26 15:00N 66°42' E 013°42'0 0.2
2017-Jun-26 14:30N 66°42' E 013°42'5 4.6
2017-Jun-26 13:30N 66°44' E 013°31'611.5
2017-Jun-26 13:00N 66°44' E 013°17'611.0
2017-Jun-26 12:30N 66°40' E 013°08'611.3
2017-Jun-26 12:00N 66°35' E 013°05'5 9.3
2017-Jun-26 11:30N 66°31' E 012°58'611.8
2017-Jun-26 10:59N 66°25' E 012°59'511.1
2017-Jun-26 10:30N 66°20' E 012°53'611.9
2017-Jun-26 10:00N 66°17' E 012°41'611.6
2017-Jun-26 09:30N 66°15' E 012°28'611.5
2017-Jun-26 09:00N 66°17' E 012°15'612.7
2017-Jun-26 08:30N 66°16' E 011°59'714.3
2017-Jun-26 08:00N 66°14' E 011°42'12212.7
2017-Jun-25 22:25N 64°23' E 009°45'613.4
2017-Jun-25 22:00N 64°17' E 009°42'713.5
2017-Jun-25 21:29N 64°10' E 009°38'713.4
2017-Jun-25 21:00N 64°04' E 009°35'713.4
2017-Jun-25 20:29N 63°58' E 009°27'713.5
2017-Jun-25 20:01N 63°53' E 009°19'713.7
2017-Jun-25 19:30N 63°47' E 009°11'713.3
2017-Jun-25 19:00N 63°40' E 009°15'5 9.8
2017-Jun-25 18:31N 63°37' E 009°23'714.4
2017-Jun-25 18:00N 63°39' E 009°39'510.3
2017-Jun-25 17:30N 63°36' E 009°48'714.4
2017-Jun-25 17:01N 63°30' E 009°55'713.2
2017-Jun-25 16:30N 63°28' E 010°10'611.3
2017-Jun-25 16:00N 63°26' E 010°22'0 0.6
2017-Jun-25 15:30N 63°26' E 010°22'0 0.0
2017-Jun-25 15:00N 63°26' E 010°22'0 0.1
2017-Jun-25 14:30N 63°26' E 010°22'0 0.0
2017-Jun-25 13:30N 63°26' E 010°22'0 0.0
2017-Jun-25 13:00N 63°26' E 010°22'0 0.0
2017-Jun-25 12:30N 63°26' E 010°22'0 0.0
2017-Jun-25 12:01N 63°26' E 010°22'0 0.0
2017-Jun-25 11:30N 63°26' E 010°22'0 0.0
2017-Jun-25 11:00N 63°26' E 010°22'0 0.0
2017-Jun-25 10:30N 63°26' E 010°22'0 0.0
2017-Jun-25 10:01N 63°26' E 010°22'0 0.0
2017-Jun-25 09:30N 63°26' E 010°22'0 0.0
2017-Jun-25 09:00N 63°26' E 010°22'0 0.0
2017-Jun-25 08:30N 63°26' E 010°22'0 0.0
2017-Jun-25 08:00N 63°26' E 010°22'0 0.0
2017-Jun-25 07:31N 63°26' E 010°22'0 0.0
2017-Jun-25 07:00N 63°26' E 010°22'0 0.0
2017-Jun-25 06:30N 63°26' E 010°22'0 0.0
2017-Jun-25 06:01N 63°26' E 010°22'0 0.1
2017-Jun-25 05:30N 63°26' E 010°22'1 2.6
2017-Jun-25 05:00N 63°27' E 010°20'713.5
2017-Jun-25 04:30N 63°28' E 010°05'714.3
2017-Jun-25 04:00N 63°32' E 009°51'815.2
2017-Jun-25 03:30N 63°39' E 009°46'611.9
2017-Jun-25 03:00N 63°37' E 009°33'815.1
2017-Jun-25 02:30N 63°33' E 009°19'815.4
2017-Jun-25 02:00N 63°30' E 009°04'714.9
2017-Jun-25 01:30N 63°27' E 008°48'815.1
2017-Jun-25 01:00N 63°24' E 008°33'714.8
2017-Jun-25 00:30N 63°20' E 008°18'815.5
2017-Jun-25 00:00N 63°15' E 008°05'815.1
2017-Jun-24 23:30N 63°13' E 007°49'612.0
2017-Jun-24 23:00N 63°15' E 007°36'1020.1
2017-Jun-24 22:30N 63°15' E 007°14'1122.4
2017-Jun-24 22:01N 63°10' E 006°52'1223.0
2017-Jun-24 21:30N 63°02' E 006°32'1223.2
2017-Jun-24 21:00N 62°54' E 006°13'1123.0
2017-Jun-24 20:30N 62°46' E 005°56'1122.9
2017-Jun-24 20:01N 62°38' E 005°39'1019.4
2017-Jun-24 19:30N 62°29' E 005°49'814.8
2017-Jun-24 19:00N 62°25' E 006°03'815.3
2017-Jun-24 18:30N 62°23' E 006°19'917.8
2017-Jun-24 18:00N 62°27' E 006°37'918.0
2017-Jun-24 17:29N 62°24' E 006°56'816.1
2017-Jun-24 17:00N 62°16' E 007°01'918.8
2017-Jun-24 16:31N 62°07' E 006°57'3 1.5
2017-Jun-24 14:45N 62°05' E 006°53'810.2
2017-Jun-24 14:00N 62°07' E 007°08'2 3.7
2017-Jun-24 13:30N 62°06' E 007°12'0 0.0
2017-Jun-24 13:00N 62°06' E 007°12'0 0.0
2017-Jun-24 12:30N 62°06' E 007°12'0 0.0
2017-Jun-24 12:00N 62°06' E 007°12'0 0.0
2017-Jun-24 11:30N 62°06' E 007°12'0 0.0
2017-Jun-24 11:00N 62°06' E 007°12'0 0.0
2017-Jun-24 10:30N 62°06' E 007°12'0 0.0
2017-Jun-24 10:00N 62°06' E 007°12'0 0.0
2017-Jun-24 09:30N 62°06' E 007°12'0 0.0
2017-Jun-24 09:00N 62°06' E 007°12'0 0.0
2017-Jun-24 08:30N 62°06' E 007°12'0 0.0
2017-Jun-24 08:00N 62°06' E 007°12'0 0.0
2017-Jun-24 07:30N 62°06' E 007°12'0 0.0
2017-Jun-24 07:00N 62°06' E 007°12'0 0.0
2017-Jun-24 06:30N 62°06' E 007°12'0 0.0
2017-Jun-24 06:00N 62°06' E 007°12'0 0.0
2017-Jun-24 05:30N 62°06' E 007°12'0 0.0
2017-Jun-24 05:00N 62°06' E 007°12'0 0.0
2017-Jun-24 04:30N 62°06' E 007°12'0 0.1
2017-Jun-24 04:00N 62°06' E 007°12'1 2.1
2017-Jun-24 03:30N 62°07' E 007°10'611.0
2017-Jun-24 03:00N 62°06' E 006°58'714.4
2017-Jun-24 02:30N 62°13' E 007°02'815.6
2017-Jun-24 02:00N 62°21' E 006°56'612.8
2017-Jun-24 01:30N 62°27' E 006°51'918.3
2017-Jun-24 01:00N 62°25' E 006°31'1019.6
2017-Jun-24 00:30N 62°23' E 006°11'815.0
2017-Jun-24 00:00N 62°27' E 005°57'917.3
2017-Jun-23 23:30N 62°30' E 005°40'919.0
2017-Jun-23 23:01N 62°29' E 005°20'1121.7
2017-Jun-23 22:30N 62°21' E 005°02'1021.5
2017-Jun-23 22:00N 62°14' E 004°46'1019.9
2017-Jun-23 21:30N 62°07' E 004°30'19420.1
2017-Jun-23 11:53N 58°54' E 004°20'921.7
2017-Jun-23 11:28N 58°45' E 004°25'1021.7
2017-Jun-23 11:01N 58°36' E 004°32'1321.8
2017-Jun-23 10:26N 58°24' E 004°40'19421.9
2017-Jun-23 01:36N 55°21' E 006°37'222.8
2017-Jun-23 01:30N 55°19' E 006°38'1123.0
2017-Jun-23 01:01N 55°08' E 006°44'1223.0
2017-Jun-23 00:30N 54°57' E 006°51'1122.7
2017-Jun-23 00:00N 54°47' E 007°00'4922.1
2017-Jun-22 21:48N 54°07' E 007°49'620.3
2017-Jun-22 21:30N 54°04' E 007°58'918.4
2017-Jun-22 21:00N 54°00' E 008°12'714.1
2017-Jun-22 20:30N 53°59' E 008°24'817.0
2017-Jun-22 20:00N 53°57' E 008°38'815.0
2017-Jun-22 19:30N 53°51' E 008°45'815.1
2017-Jun-22 19:01N 53°51' E 008°58'815.0
2017-Jun-22 18:30N 53°53' E 009°11'714.2
2017-Jun-22 18:00N 53°50' E 009°21'817.0
2017-Jun-22 17:31N 53°43' E 009°29'713.7
2017-Jun-22 17:01N 53°37' E 009°34'612.9
2017-Jun-22 16:30N 53°34' E 009°44'611.3
2017-Jun-22 16:00N 53°33' E 009°54'2 3.4
2017-Jun-22 15:30N 53°33' E 009°56'0 0.0
2017-Jun-22 15:00N 53°33' E 009°56'0 0.0
2017-Jun-22 14:30N 53°33' E 009°56'0 0.0
2017-Jun-22 13:30N 53°33' E 009°56'0 0.0
2017-Jun-22 13:00N 53°33' E 009°56'0 0.0
2017-Jun-22 12:30N 53°33' E 009°56'0 0.0
2017-Jun-22 12:00N 53°33' E 009°56'0 0.0
2017-Jun-22 11:30N 53°33' E 009°56'0 0.0
2017-Jun-22 11:00N 53°33' E 009°56'0 0.0
2017-Jun-22 10:30N 53°33' E 009°56'0 0.0
2017-Jun-22 10:00N 53°33' E 009°56'0 0.0
2017-Jun-22 09:30N 53°33' E 009°56'0 0.0
2017-Jun-22 09:00N 53°33' E 009°56'0 0.0
2017-Jun-22 08:30N 53°33' E 009°56'0 0.0
2017-Jun-22 08:00N 53°33' E 009°56'0 0.0
2017-Jun-22 07:30N 53°33' E 009°56'0 0.0
2017-Jun-22 07:00N 53°33' E 009°56'0 0.0
2017-Jun-22 06:30N 53°33' E 009°56'0 0.0
2017-Jun-22 06:00N 53°33' E 009°56'0 0.0
2017-Jun-22 05:30N 53°33' E 009°56'0 0.0
2017-Jun-22 05:00N 53°33' E 009°56'0 0.0
2017-Jun-22 04:30N 53°33' E 009°56'0 0.0
2017-Jun-22 04:00N 53°33' E 009°56'2 4.9
2017-Jun-22 03:31N 53°33' E 009°52'4 8.9
2017-Jun-22 03:00N 53°34' E 009°45'713.3
2017-Jun-22 02:31N 53°36' E 009°35'612.6
2017-Jun-22 02:00N 53°42' E 009°30'714.4
2017-Jun-22 01:31N 53°48' E 009°23'714.4
2017-Jun-22 01:01N 53°53' E 009°14'5 9.2
2017-Jun-22 00:30N 53°53' E 009°06'714.9
2017-Jun-22 00:00N 53°51' E 008°54'713.8
2017-Jun-21 23:31N 53°53' E 008°43'815.2
2017-Jun-21 23:00N 53°58' E 008°34'917.4
2017-Jun-21 22:30N 53°60' E 008°19'713.7
2017-Jun-21 22:00N 53°59' E 008°07'612.2
2017-Jun-21 21:30N 53°58' E 007°57'612.5
2017-Jun-21 21:00N 53°57' E 007°47'713.5
2017-Jun-21 20:30N 53°55' E 007°36'714.9
2017-Jun-21 20:00N 53°54' E 007°23'915.1
2017-Jun-21 19:24N 53°52' E 007°08'1315.7
2017-Jun-21 18:35N 53°49' E 006°47'116.0
2017-Jun-21 18:31N 53°48' E 006°45'816.0
2017-Jun-21 18:00N 53°47' E 006°32'1816.2
2017-Jun-21 16:55N 53°41' E 006°03'916.3
2017-Jun-21 16:23N 53°39' E 005°49'616.5
2017-Jun-21 16:01N 53°37' E 005°40'816.8
2017-Jun-21 15:31N 53°34' E 005°26'917.1
2017-Jun-21 15:00N 53°31' E 005°13'1717.4
2017-Jun-21 14:01N 53°25' E 004°45'917.7
2017-Jun-21 13:30N 53°17' E 004°39'918.3
2017-Jun-21 13:00N 53°09' E 004°32'918.0
2017-Jun-21 12:31N 53°01' E 004°24'917.9
2017-Jun-21 12:01N 52°54' E 004°16'917.8
2017-Jun-21 11:29N 52°46' E 004°07'1020.3
2017-Jun-21 11:00N 52°39' E 003°56'1121.0
2017-Jun-21 10:30N 52°31' E 003°45'1020.8
2017-Jun-21 10:00N 52°23' E 003°34'20813372.7
2017-Jun-21 10:00N 50°48' W 001°24'199409.8 110 / 241020.0 17.0 16.0
2017-Jun-21 09:30N 52°16' E 003°22'1120.3
2017-Jun-21 08:59N 52°08' E 003°10'1020.2
2017-Jun-21 08:29N 52°01' E 002°59'1019.8
2017-Jun-21 08:00N 51°54' E 002°48'1019.6
2017-Jun-21 07:30N 51°46' E 002°38'1019.4
2017-Jun-21 06:59N 51°38' E 002°28'919.2
2017-Jun-21 06:31N 51°31' E 002°19'918.7
2017-Jun-21 06:01N 51°23' E 002°11'918.6
2017-Jun-21 05:31N 51°15' E 002°04'918.2
2017-Jun-21 05:00N 51°10' E 001°52'918.0
2017-Jun-21 04:31N 51°04' E 001°41'917.9
2017-Jun-21 04:01N 50°58' E 001°30'917.8
2017-Jun-21 03:30N 50°50' E 001°24'1018.4
2017-Jun-21 02:57N 50°41' E 001°17'818.9
2017-Jun-21 02:30N 50°35' E 001°09'1419.0
2017-Jun-21 01:45N 50°28' E 000°49'519.2
2017-Jun-21 01:29N 50°27' E 000°40'1019.0
2017-Jun-21 00:55N 50°24' E 000°25'818.8
2017-Jun-21 00:30N 50°23' E 000°12'918.6
2017-Jun-21 00:00N 50°22' W 000°02'918.8
2017-Jun-20 23:31N 50°24' W 000°16'918.8
2017-Jun-20 23:00N 50°29' W 000°29'1019.3
2017-Jun-20 22:31N 50°34' W 000°42'918.4
2017-Jun-20 22:01N 50°39' W 000°54'714.2
2017-Jun-20 21:30N 50°44' W 001°03'917.6
2017-Jun-20 21:01N 50°46' W 001°16'4 8.9
2017-Jun-20 20:30N 50°50' W 001°19'5 9.2
2017-Jun-20 20:00N 50°53' W 001°24'1 1.0
2017-Jun-20 19:25N 50°54' W 001°25'0 0.0
2017-Jun-20 18:55N 50°54' W 001°25'0 0.0
2017-Jun-20 18:28N 50°54' W 001°25'0 0.0
2017-Jun-20 17:58N 50°54' W 001°25'0 0.0
2017-Jun-20 17:28N 50°54' W 001°25'0 0.0
2017-Jun-20 16:55N 50°54' W 001°25'0 0.0
2017-Jun-20 16:28N 50°54' W 001°25'0 0.0
2017-Jun-20 15:58N 50°54' W 001°25'0 0.0
2017-Jun-20 15:25N 50°54' W 001°25'0 0.0
2017-Jun-20 14:55N 50°54' W 001°25'0 0.0
2017-Jun-20 13:58N 50°54' W 001°25'0 0.0
2017-Jun-20 13:28N 50°54' W 001°25'0 0.0
2017-Jun-20 12:58N 50°54' W 001°25'0 0.0
2017-Jun-20 12:28N 50°54' W 001°25'0 0.0
2017-Jun-20 11:55N 50°54' W 001°25'0 0.0
2017-Jun-20 11:28N 50°54' W 001°25'0 0.0
2017-Jun-20 10:55N 50°54' W 001°25'0 0.0
2017-Jun-20 10:25N 50°54' W 001°25'0 0.0
2017-Jun-20 09:55N 50°54' W 001°25'0 0.0
2017-Jun-20 09:25N 50°54' W 001°25'0 0.0
2017-Jun-20 08:55N 50°54' W 001°25'0 0.0
2017-Jun-20 08:25N 50°54' W 001°25'0 0.0
2017-Jun-20 07:55N 50°54' W 001°25'0 0.0
2017-Jun-20 07:28N 50°54' W 001°25'0 0.0
2017-Jun-20 06:58N 50°54' W 001°25'0 0.0
2017-Jun-20 06:28N 50°54' W 001°25'0 0.0
2017-Jun-20 05:58N 50°54' W 001°25'0 0.0
2017-Jun-20 05:29N 50°54' W 001°25'1 2.6
2017-Jun-20 05:00N 50°53' W 001°24'5 9.6
2017-Jun-20 04:30N 50°50' W 001°18'4 8.7
2017-Jun-20 04:00N 50°46' W 001°14'817.0
2017-Jun-20 03:31N 50°43' W 001°02'714.1
2017-Jun-20 03:00N 50°38' W 000°54'713.8
2017-Jun-20 02:30N 50°34' W 000°45'816.2
2017-Jun-20 02:00N 50°33' W 000°33'918.6
2017-Jun-20 01:30N 50°32' W 000°18'1019.3
2017-Jun-20 01:00N 50°32' W 000°03'1019.9
2017-Jun-20 00:30N 50°34' E 000°12'1020.0
2017-Jun-20 00:00N 50°37' E 000°27'1019.7
2017-Jun-19 23:30N 50°42' E 000°41'1019.4
2017-Jun-19 23:00N 50°48' E 000°53'1019.6
2017-Jun-19 22:30N 50°54' E 001°06'1019.9
2017-Jun-19 22:00N 50°60' E 001°18'1019.7
2017-Jun-19 21:30N 51°05' E 001°31'1019.0
2017-Jun-19 21:00N 51°12' E 001°42'918.6
2017-Jun-19 20:30N 51°19' E 001°52'918.8
2017-Jun-19 20:00N 51°27' E 001°59'1019.4
2017-Jun-19 19:30N 51°35' E 002°09'1019.8
2017-Jun-19 19:00N 51°42' E 002°19'1020.3
2017-Jun-19 18:30N 51°50' E 002°29'1020.1
2017-Jun-19 18:00N 51°59' E 002°38'1121.2
2017-Jun-19 17:30N 52°10' E 002°37'1221.6
2017-Jun-19 16:56N 52°22' E 002°37'2121.7
2017-Jun-19 15:59N 52°42' E 002°37'1021.5
2017-Jun-19 15:30N 52°53' E 002°37'1121.6
2017-Jun-19 15:00N 53°04' E 002°38'1121.6
2017-Jun-19 14:30N 53°14' E 002°43'2220.9
2017-Jun-19 13:28N 53°34' E 002°56'1320.5
2017-Jun-19 12:51N 53°46' E 003°05'720.7
2017-Jun-19 12:30N 53°52' E 003°11'10020.4
2017-Jun-19 07:37N 55°30' E 003°41'320.6
2017-Jun-19 07:30N 55°33' E 003°41'1020.7
2017-Jun-19 06:59N 55°43' E 003°41'1120.9
2017-Jun-19 06:29N 55°53' E 003°41'1221.0
2017-Jun-19 05:55N 56°05' E 003°41'  
Track history (hours):
 
Tides and Currents Weather Stations Pressure Air Temp Water Temp Dewpoint Dewpoint Depression Visibility Wind Speed Wind Dir Waves Ship Positions

Norwegian Jade

Last reported at 2017-Jun-29 02:00 UTC. Time now 2017-Jun-29 02:02 UTC.
Position N 70°13' E 021°09'.

Length 294 m; draft 8.6 m.

Type: Passenger vessel. MMSI: 308416000.

Date/timePositionNaut miles runAvg speedWind from/ knotsBaromVisibWave heightAir tempDewpointWater temp
2017-Jun-29 02:00N 70°13' E 021°09'714.2
2017-Jun-29 01:30N 70°18' E 021°26'714.2
2017-Jun-29 01:00N 70°24' E 021°37'714.0
2017-Jun-29 00:30N 70°25' E 021°57'713.9
2017-Jun-29 00:01N 70°27' E 022°17'714.2
2017-Jun-28 23:30N 70°28' E 022°39'714.9
2017-Jun-28 23:00N 70°31' E 022°59'815.0
2017-Jun-28 22:30N 70°36' E 023°15'917.0
2017-Jun-28 22:00N 70°43' E 023°31'816.5
2017-Jun-28 21:30N 70°49' E 023°49'816.4
2017-Jun-28 21:00N 70°54' E 024°08'816.6
2017-Jun-28 20:30N 71°00' E 024°26'714.1
2017-Jun-28 20:00N 71°01' E 024°48'815.8
2017-Jun-28 19:30N 70°60' E 025°12'714.2
2017-Jun-28 19:00N 70°56' E 025°31'612.4
2017-Jun-28 18:30N 70°56' E 025°50'4 7.1
2017-Jun-28 17:58N 70°59' E 025°58'0 0.0
2017-Jun-28 17:28N 70°59' E 025°58'0 0.0
2017-Jun-28 16:58N 70°59' E 025°58'0 0.0
2017-Jun-28 16:28N 70°59' E 025°58'0 0.0
2017-Jun-28 15:58N 70°59' E 025°58'0 0.0
2017-Jun-28 15:28N 70°59' E 025°58'0 0.0
2017-Jun-28 14:58N 70°59' E 025°58'0 0.0
2017-Jun-28 13:58N 70°59' E 025°58'0 0.0
2017-Jun-28 13:28N 70°59' E 025°58'0 0.0
2017-Jun-28 12:58N 70°59' E 025°58'0 0.0
2017-Jun-28 12:28N 70°59' E 025°58'0 0.0
2017-Jun-28 11:58N 70°59' E 025°58'0 0.0
2017-Jun-28 11:28N 70°59' E 025°58'0 0.0
2017-Jun-28 10:58N 70°59' E 025°58'0 0.0
2017-Jun-28 10:28N 70°59' E 025°58'0 0.0
2017-Jun-28 09:58N 70°59' E 025°58'0 0.1
2017-Jun-28 09:30N 70°59' E 025°58'2 3.1
2017-Jun-28 09:00N 70°58' E 025°59'510.9
2017-Jun-28 08:30N 70°59' E 026°15'612.8
2017-Jun-28 08:00N 71°06' E 026°15'815.0
2017-Jun-28 07:30N 71°11' E 025°58'816.8
2017-Jun-28 07:00N 71°13' E 025°33'918.3
2017-Jun-28 06:30N 71°12' E 025°05'1122.1
2017-Jun-28 06:00N 71°11' E 024°31'1122.3
2017-Jun-28 05:30N 71°10' E 023°57'1122.2
2017-Jun-28 05:00N 71°09' E 023°22'1122.0
2017-Jun-28 04:31N 71°07' E 022°49'1122.7
2017-Jun-28 04:00N 71°01' E 022°19'1122.4
2017-Jun-28 03:30N 70°55' E 021°48'2922.2
2017-Jun-28 02:12N 70°41' E 020°32'422.7
2017-Jun-28 02:00N 70°39' E 020°20'1122.1
2017-Jun-28 01:30N 70°34' E 019°51'1122.3
2017-Jun-28 01:00N 70°28' E 019°21'1122.4
2017-Jun-28 00:30N 70°22' E 018°54'1224.1
2017-Jun-28 00:00N 70°15' E 018°25'1223.9
2017-Jun-27 23:30N 70°07' E 017°58'1223.8
2017-Jun-27 23:00N 69°59' E 017°32'6422.1
2017-Jun-27 23:00N 69°54' E 017°24'714.1 280 / 121010.027.0 8.0 12.0
2017-Jun-27 22:30N 69°52' E 017°05'1223.7
2017-Jun-27 22:00N 69°45' E 016°38'1223.8
2017-Jun-27 21:30N 69°38' E 016°09'1224.2
2017-Jun-27 21:00N 69°31' E 015°42'1223.8
2017-Jun-27 20:30N 69°23' E 015°14'1223.8
2017-Jun-27 20:00N 69°16' E 014°48'1223.8
2017-Jun-27 19:30N 69°08' E 014°25'1223.6
2017-Jun-27 19:00N 68°58' E 014°05'1123.1
2017-Jun-27 18:31N 68°49' E 013°47'1223.2
2017-Jun-27 18:00N 68°39' E 013°31'1223.2
2017-Jun-27 17:30N 68°28' E 013°15'1223.4
2017-Jun-27 17:00N 68°18' E 013°02'1223.7
2017-Jun-27 16:30N 68°07' E 012°48'1122.9
2017-Jun-27 16:00N 67°56' E 012°42'816.0
2017-Jun-27 15:30N 67°50' E 012°56'1121.9
2017-Jun-27 15:00N 67°57' E 013°18'1212.1
2017-Jun-27 14:00N 68°07' E 013°36'0 0.3
2017-Jun-27 13:30N 68°07' E 013°36'0 0.0
2017-Jun-27 13:00N 68°07' E 013°36'0 0.0
2017-Jun-27 12:31N 68°07' E 013°36'0 0.0
2017-Jun-27 12:00N 68°07' E 013°36'0 0.0
2017-Jun-27 11:30N 68°07' E 013°36'0 0.0
2017-Jun-27 11:00N 68°07' E 013°36'0 0.0
2017-Jun-27 10:30N 68°07' E 013°36'0 0.0
2017-Jun-27 10:00N 68°07' E 013°36'0 0.0
2017-Jun-27 09:29N 68°07' E 013°36'0 0.0
2017-Jun-27 09:00N 68°07' E 013°36'0 0.0
2017-Jun-27 08:30N 68°07' E 013°36'0 0.0
2017-Jun-27 08:00N 68°07' E 013°36'0 0.0
2017-Jun-27 07:30N 68°07' E 013°36'0 0.0
2017-Jun-27 07:00N 68°07' E 013°36'0 0.0
2017-Jun-27 06:30N 68°07' E 013°36'0 0.0
2017-Jun-27 06:00N 68°07' E 013°36'0 0.0
2017-Jun-27 05:30N 68°07' E 013°36'0 0.0
2017-Jun-27 05:01N 68°07' E 013°36'0 0.0
2017-Jun-27 04:30N 68°07' E 013°36'0 0.0
2017-Jun-27 04:00N 68°07' E 013°36'0 0.0
2017-Jun-27 03:31N 68°07' E 013°36'4 7.8
2017-Jun-27 03:00N 68°03' E 013°35'5 8.9
2017-Jun-27 02:30N 67°59' E 013°32'4 8.4
2017-Jun-27 02:00N 67°55' E 013°34'4 8.0
2017-Jun-27 01:30N 67°51' E 013°37'4 7.6
2017-Jun-27 01:00N 67°47' E 013°37'4 7.6
2017-Jun-27 00:30N 67°43' E 013°35'4 7.5
2017-Jun-27 00:00N 67°40' E 013°33'4 7.5
2017-Jun-26 23:31N 67°36' E 013°31'4 7.7
2017-Jun-26 23:01N 67°32' E 013°29'4 7.9
2017-Jun-26 22:30N 67°28' E 013°26'4 7.9
2017-Jun-26 22:00N 67°25' E 013°24'4 7.7
2017-Jun-26 21:30N 67°21' E 013°22'4 7.8
2017-Jun-26 21:00N 67°17' E 013°20'4 7.8
2017-Jun-26 20:30N 67°13' E 013°20'4 7.5
2017-Jun-26 20:00N 67°09' E 013°22'4 7.1
2017-Jun-26 19:30N 67°06' E 013°23'4 7.2
2017-Jun-26 19:00N 67°02' E 013°25'4 7.1
2017-Jun-26 18:30N 66°59' E 013°27'5 9.6
2017-Jun-26 18:00N 66°54' E 013°30'4 7.7
2017-Jun-26 17:30N 66°52' E 013°39'2 5.0
2017-Jun-26 17:00N 66°50' E 013°38'714.8
2017-Jun-26 16:30N 66°47' E 013°20'3 6.0
2017-Jun-26 16:00N 66°44' E 013°20'510.3
2017-Jun-26 15:30N 66°43' E 013°33'4 7.4
2017-Jun-26 15:00N 66°42' E 013°42'0 0.2
2017-Jun-26 14:30N 66°42' E 013°42'5 4.6
2017-Jun-26 13:30N 66°44' E 013°31'611.5
2017-Jun-26 13:00N 66°44' E 013°17'611.0
2017-Jun-26 12:30N 66°40' E 013°08'611.3
2017-Jun-26 12:00N 66°35' E 013°05'5 9.3
2017-Jun-26 11:30N 66°31' E 012°58'611.8
2017-Jun-26 10:59N 66°25' E 012°59'511.1
2017-Jun-26 10:30N 66°20' E 012°53'611.9
2017-Jun-26 10:00N 66°17' E 012°41'611.6
2017-Jun-26 09:30N 66°15' E 012°28'611.5
2017-Jun-26 09:00N 66°17' E 012°15'612.7
2017-Jun-26 08:30N 66°16' E 011°59'714.3
2017-Jun-26 08:00N 66°14' E 011°42'12212.7
2017-Jun-25 22:25N 64°23' E 009°45'613.4
2017-Jun-25 22:00N 64°17' E 009°42'713.5
2017-Jun-25 21:29N 64°10' E 009°38'713.4
2017-Jun-25 21:00N 64°04' E 009°35'713.4
2017-Jun-25 20:29N 63°58' E 009°27'713.5
2017-Jun-25 20:01N 63°53' E 009°19'713.7
2017-Jun-25 19:30N 63°47' E 009°11'713.3
2017-Jun-25 19:00N 63°40' E 009°15'5 9.8
2017-Jun-25 18:31N 63°37' E 009°23'714.4
2017-Jun-25 18:00N 63°39' E 009°39'510.3
2017-Jun-25 17:30N 63°36' E 009°48'714.4
2017-Jun-25 17:01N 63°30' E 009°55'713.2
2017-Jun-25 16:30N 63°28' E 010°10'611.3
2017-Jun-25 16:00N 63°26' E 010°22'0 0.6
2017-Jun-25 15:30N 63°26' E 010°22'0 0.0
2017-Jun-25 15:00N 63°26' E 010°22'0 0.1
2017-Jun-25 14:30N 63°26' E 010°22'0 0.0
2017-Jun-25 13:30N 63°26' E 010°22'0 0.0
2017-Jun-25 13:00N 63°26' E 010°22'0 0.0
2017-Jun-25 12:30N 63°26' E 010°22'0 0.0
2017-Jun-25 12:01N 63°26' E 010°22'0 0.0
2017-Jun-25 11:30N 63°26' E 010°22'0 0.0
2017-Jun-25 11:00N 63°26' E 010°22'0 0.0
2017-Jun-25 10:30N 63°26' E 010°22'0 0.0
2017-Jun-25 10:01N 63°26' E 010°22'0 0.0
2017-Jun-25 09:30N 63°26' E 010°22'0 0.0
2017-Jun-25 09:00N 63°26' E 010°22'0 0.0
2017-Jun-25 08:30N 63°26' E 010°22'0 0.0
2017-Jun-25 08:00N 63°26' E 010°22'0 0.0
2017-Jun-25 07:31N 63°26' E 010°22'0 0.0
2017-Jun-25 07:00N 63°26' E 010°22'0 0.0
2017-Jun-25 06:30N 63°26' E 010°22'0 0.0
2017-Jun-25 06:01N 63°26' E 010°22'0 0.1
2017-Jun-25 05:30N 63°26' E 010°22'1 2.6
2017-Jun-25 05:00N 63°27' E 010°20'713.5
2017-Jun-25 04:30N 63°28' E 010°05'714.3
2017-Jun-25 04:00N 63°32' E 009°51'815.2
2017-Jun-25 03:30N 63°39' E 009°46'611.9
2017-Jun-25 03:00N 63°37' E 009°33'815.1
2017-Jun-25 02:30N 63°33' E 009°19'815.4
2017-Jun-25 02:00N 63°30' E 009°04'714.9
2017-Jun-25 01:30N 63°27' E 008°48'815.1
2017-Jun-25 01:00N 63°24' E 008°33'714.8
2017-Jun-25 00:30N 63°20' E 008°18'815.5
2017-Jun-25 00:00N 63°15' E 008°05'815.1
2017-Jun-24 23:30N 63°13' E 007°49'612.0
2017-Jun-24 23:00N 63°15' E 007°36'1020.1
2017-Jun-24 22:30N 63°15' E 007°14'1122.4
2017-Jun-24 22:01N 63°10' E 006°52'1223.0
2017-Jun-24 21:30N 63°02' E 006°32'1223.2
2017-Jun-24 21:00N 62°54' E 006°13'1123.0
2017-Jun-24 20:30N 62°46' E 005°56'1122.9
2017-Jun-24 20:01N 62°38' E 005°39'1019.4
2017-Jun-24 19:30N 62°29' E 005°49'814.8
2017-Jun-24 19:00N 62°25' E 006°03'815.3
2017-Jun-24 18:30N 62°23' E 006°19'917.8
2017-Jun-24 18:00N 62°27' E 006°37'918.0
2017-Jun-24 17:29N 62°24' E 006°56'816.1
2017-Jun-24 17:00N 62°16' E 007°01'918.8
2017-Jun-24 16:31N 62°07' E 006°57'3 1.5
2017-Jun-24 14:45N 62°05' E 006°53'810.2
2017-Jun-24 14:00N 62°07' E 007°08'2 3.7
2017-Jun-24 13:30N 62°06' E 007°12'0 0.0
2017-Jun-24 13:00N 62°06' E 007°12'0 0.0
2017-Jun-24 12:30N 62°06' E 007°12'0 0.0
2017-Jun-24 12:00N 62°06' E 007°12'0 0.0
2017-Jun-24 11:30N 62°06' E 007°12'0 0.0
2017-Jun-24 11:00N 62°06' E 007°12'0 0.0
2017-Jun-24 10:30N 62°06' E 007°12'0 0.0
2017-Jun-24 10:00N 62°06' E 007°12'0 0.0
2017-Jun-24 09:30N 62°06' E 007°12'0 0.0
2017-Jun-24 09:00N 62°06' E 007°12'0 0.0
2017-Jun-24 08:30N 62°06' E 007°12'0 0.0
2017-Jun-24 08:00N 62°06' E 007°12'0 0.0
2017-Jun-24 07:30N 62°06' E 007°12'0 0.0
2017-Jun-24 07:00N 62°06' E 007°12'0 0.0
2017-Jun-24 06:30N 62°06' E 007°12'0 0.0
2017-Jun-24 06:00N 62°06' E 007°12'0 0.0
2017-Jun-24 05:30N 62°06' E 007°12'0 0.0
2017-Jun-24 05:00N 62°06' E 007°12'0 0.0
2017-Jun-24 04:30N 62°06' E 007°12'0 0.1
2017-Jun-24 04:00N 62°06' E 007°12'1 2.1
2017-Jun-24 03:30N 62°07' E 007°10'611.0
2017-Jun-24 03:00N 62°06' E 006°58'714.4
2017-Jun-24 02:30N 62°13' E 007°02'815.6
2017-Jun-24 02:00N 62°21' E 006°56'612.8
2017-Jun-24 01:30N 62°27' E 006°51'918.3
2017-Jun-24 01:00N 62°25' E 006°31'1019.6
2017-Jun-24 00:30N 62°23' E 006°11'815.0
2017-Jun-24 00:00N 62°27' E 005°57'917.3
2017-Jun-23 23:30N 62°30' E 005°40'919.0
2017-Jun-23 23:01N 62°29' E 005°20'1121.7
2017-Jun-23 22:30N 62°21' E 005°02'1021.5
2017-Jun-23 22:00N 62°14' E 004°46'1019.9
2017-Jun-23 21:30N 62°07' E 004°30'19420.1
2017-Jun-23 11:53N 58°54' E 004°20'921.7
2017-Jun-23 11:28N 58°45' E 004°25'1021.7
2017-Jun-23 11:01N 58°36' E 004°32'1321.8
2017-Jun-23 10:26N 58°24' E 004°40'19421.9
2017-Jun-23 01:36N 55°21' E 006°37'222.8
2017-Jun-23 01:30N 55°19' E 006°38'1123.0
2017-Jun-23 01:01N 55°08' E 006°44'1223.0
2017-Jun-23 00:30N 54°57' E 006°51'1122.7
2017-Jun-23 00:00N 54°47' E 007°00'4922.1
2017-Jun-22 21:48N 54°07' E 007°49'620.3
2017-Jun-22 21:30N 54°04' E 007°58'918.4
2017-Jun-22 21:00N 54°00' E 008°12'714.1
2017-Jun-22 20:30N 53°59' E 008°24'817.0
2017-Jun-22 20:00N 53°57' E 008°38'815.0
2017-Jun-22 19:30N 53°51' E 008°45'815.1
2017-Jun-22 19:01N 53°51' E 008°58'815.0
2017-Jun-22 18:30N 53°53' E 009°11'714.2
2017-Jun-22 18:00N 53°50' E 009°21'817.0
2017-Jun-22 17:31N 53°43' E 009°29'713.7
2017-Jun-22 17:01N 53°37' E 009°34'612.9
2017-Jun-22 16:30N 53°34' E 009°44'611.3
2017-Jun-22 16:00N 53°33' E 009°54'2 3.4
2017-Jun-22 15:30N 53°33' E 009°56'0 0.0
2017-Jun-22 15:00N 53°33' E 009°56'0 0.0
2017-Jun-22 14:30N 53°33' E 009°56'0 0.0
2017-Jun-22 13:30N 53°33' E 009°56'0 0.0
2017-Jun-22 13:00N 53°33' E 009°56'0 0.0
2017-Jun-22 12:30N 53°33' E 009°56'0 0.0
2017-Jun-22 12:00N 53°33' E 009°56'0 0.0
2017-Jun-22 11:30N 53°33' E 009°56'0 0.0
2017-Jun-22 11:00N 53°33' E 009°56'0 0.0
2017-Jun-22 10:30N 53°33' E 009°56'0 0.0
2017-Jun-22 10:00N 53°33' E 009°56'0 0.0
2017-Jun-22 09:30N 53°33' E 009°56'0 0.0
2017-Jun-22 09:00N 53°33' E 009°56'0 0.0
2017-Jun-22 08:30N 53°33' E 009°56'0 0.0
2017-Jun-22 08:00N 53°33' E 009°56'0 0.0
2017-Jun-22 07:30N 53°33' E 009°56'0 0.0
2017-Jun-22 07:00N 53°33' E 009°56'0 0.0
2017-Jun-22 06:30N 53°33' E 009°56'0 0.0
2017-Jun-22 06:00N 53°33' E 009°56'0 0.0
2017-Jun-22 05:30N 53°33' E 009°56'0 0.0
2017-Jun-22 05:00N 53°33' E 009°56'0 0.0
2017-Jun-22 04:30N 53°33' E 009°56'0 0.0
2017-Jun-22 04:00N 53°33' E 009°56'2 4.9
2017-Jun-22 03:31N 53°33' E 009°52'4 8.9
2017-Jun-22 03:00N 53°34' E 009°45'713.3
2017-Jun-22 02:31N 53°36' E 009°35'612.6
2017-Jun-22 02:00N 53°42' E 009°30'714.4
2017-Jun-22 01:31N 53°48' E 009°23'714.4
2017-Jun-22 01:01N 53°53' E 009°14'5 9.2
2017-Jun-22 00:30N 53°53' E 009°06'714.9
2017-Jun-22 00:00N 53°51' E 008°54'713.8
2017-Jun-21 23:31N 53°53' E 008°43'815.2
2017-Jun-21 23:00N 53°58' E 008°34'917.4
2017-Jun-21 22:30N 53°60' E 008°19'713.7
2017-Jun-21 22:00N 53°59' E 008°07'612.2
2017-Jun-21 21:30N 53°58' E 007°57'612.5
2017-Jun-21 21:00N 53°57' E 007°47'713.5
2017-Jun-21 20:30N 53°55' E 007°36'714.9
2017-Jun-21 20:00N 53°54' E 007°23'915.1
2017-Jun-21 19:24N 53°52' E 007°08'1315.7
2017-Jun-21 18:35N 53°49' E 006°47'116.0
2017-Jun-21 18:31N 53°48' E 006°45'816.0
2017-Jun-21 18:00N 53°47' E 006°32'1816.2
2017-Jun-21 16:55N 53°41' E 006°03'916.3
2017-Jun-21 16:23N 53°39' E 005°49'616.5
2017-Jun-21 16:01N 53°37' E 005°40'816.8
2017-Jun-21 15:31N 53°34' E 005°26'917.1
2017-Jun-21 15:00N 53°31' E 005°13'1717.4
2017-Jun-21 14:01N 53°25' E 004°45'917.7
2017-Jun-21 13:30N 53°17' E 004°39'918.3
2017-Jun-21 13:00N 53°09' E 004°32'918.0
2017-Jun-21 12:31N 53°01' E 004°24'917.9
2017-Jun-21 12:01N 52°54' E 004°16'917.8
2017-Jun-21 11:29N 52°46' E 004°07'1020.3
2017-Jun-21 11:00N 52°39' E 003°56'1121.0
2017-Jun-21 10:30N 52°31' E 003°45'1020.8
2017-Jun-21 10:00N 52°23' E 003°34'20813372.7
2017-Jun-21 10:00N 50°48' W 001°24'199409.8 110 / 241020.0 17.0 16.0
2017-Jun-21 09:30N 52°16' E 003°22'1120.3
2017-Jun-21 08:59N 52°08' E 003°10'1020.2
2017-Jun-21 08:29N 52°01' E 002°59'1019.8
2017-Jun-21 08:00N 51°54' E 002°48'1019.6
2017-Jun-21 07:30N 51°46' E 002°38'1019.4
2017-Jun-21 06:59N 51°38' E 002°28'919.2
2017-Jun-21 06:31N 51°31' E 002°19'918.7
2017-Jun-21 06:01N 51°23' E 002°11'918.6
2017-Jun-21 05:31N 51°15' E 002°04'918.2
2017-Jun-21 05:00N 51°10' E 001°52'918.0
2017-Jun-21 04:31N 51°04' E 001°41'917.9
2017-Jun-21 04:01N 50°58' E 001°30'917.8
2017-Jun-21 03:30N 50°50' E 001°24'1018.4
2017-Jun-21 02:57N 50°41' E 001°17'818.9
2017-Jun-21 02:30N 50°35' E 001°09'1419.0
2017-Jun-21 01:45N 50°28' E 000°49'519.2
2017-Jun-21 01:29N 50°27' E 000°40'1019.0
2017-Jun-21 00:55N 50°24' E 000°25'818.8
2017-Jun-21 00:30N 50°23' E 000°12'918.6
2017-Jun-21 00:00N 50°22' W 000°02'918.8
2017-Jun-20 23:31N 50°24' W 000°16'918.8
2017-Jun-20 23:00N 50°29' W 000°29'1019.3
2017-Jun-20 22:31N 50°34' W 000°42'918.4
2017-Jun-20 22:01N 50°39' W 000°54'714.2
2017-Jun-20 21:30N 50°44' W 001°03'917.6
2017-Jun-20 21:01N 50°46' W 001°16'4 8.9
2017-Jun-20 20:30N 50°50' W 001°19'5 9.2
2017-Jun-20 20:00N 50°53' W 001°24'1 1.0
2017-Jun-20 19:25N 50°54' W 001°25'0 0.0
2017-Jun-20 18:55N 50°54' W 001°25'0 0.0
2017-Jun-20 18:28N 50°54' W 001°25'0 0.0
2017-Jun-20 17:58N 50°54' W 001°25'0 0.0
2017-Jun-20 17:28N 50°54' W 001°25'0 0.0
2017-Jun-20 16:55N 50°54' W 001°25'0 0.0
2017-Jun-20 16:28N 50°54' W 001°25'0 0.0
2017-Jun-20 15:58N 50°54' W 001°25'0 0.0
2017-Jun-20 15:25N 50°54' W 001°25'0 0.0
2017-Jun-20 14:55N 50°54' W 001°25'0 0.0
2017-Jun-20 13:58N 50°54' W 001°25'0 0.0
2017-Jun-20 13:28N 50°54' W 001°25'0 0.0
2017-Jun-20 12:58N 50°54' W 001°25'0 0.0
2017-Jun-20 12:28N 50°54' W 001°25'0 0.0
2017-Jun-20 11:55N 50°54' W 001°25'0 0.0
2017-Jun-20 11:28N 50°54' W 001°25'0 0.0
2017-Jun-20 10:55N 50°54' W 001°25'0 0.0
2017-Jun-20 10:25N 50°54' W 001°25'0 0.0
2017-Jun-20 09:55N 50°54' W 001°25'0 0.0
2017-Jun-20 09:25N 50°54' W 001°25'0 0.0
2017-Jun-20 08:55N 50°54' W 001°25'0 0.0
2017-Jun-20 08:25N 50°54' W 001°25'0 0.0
2017-Jun-20 07:55N 50°54' W 001°25'0 0.0
2017-Jun-20 07:28N 50°54' W 001°25'0 0.0
2017-Jun-20 06:58N 50°54' W 001°25'0 0.0
2017-Jun-20 06:28N 50°54' W 001°25'0 0.0
2017-Jun-20 05:58N 50°54' W 001°25'0 0.0
2017-Jun-20 05:29N 50°54' W 001°25'1 2.6
2017-Jun-20 05:00N 50°53' W 001°24'5 9.6
2017-Jun-20 04:30N 50°50' W 001°18'4 8.7
2017-Jun-20 04:00N 50°46' W 001°14'817.0
2017-Jun-20 03:31N 50°43' W 001°02'714.1
2017-Jun-20 03:00N 50°38' W 000°54'713.8
2017-Jun-20 02:30N 50°34' W 000°45'816.2
2017-Jun-20 02:00N 50°33' W 000°33'918.6
2017-Jun-20 01:30N 50°32' W 000°18'1019.3
2017-Jun-20 01:00N 50°32' W 000°03'1019.9
2017-Jun-20 00:30N 50°34' E 000°12'1020.0
2017-Jun-20 00:00N 50°37' E 000°27'1019.7
2017-Jun-19 23:30N 50°42' E 000°41'1019.4
2017-Jun-19 23:00N 50°48' E 000°53'1019.6
2017-Jun-19 22:30N 50°54' E 001°06'1019.9
2017-Jun-19 22:00N 50°60' E 001°18'1019.7
2017-Jun-19 21:30N 51°05' E 001°31'1019.0
2017-Jun-19 21:00N 51°12' E 001°42'918.6
2017-Jun-19 20:30N 51°19' E 001°52'918.8
2017-Jun-19 20:00N 51°27' E 001°59'1019.4
2017-Jun-19 19:30N 51°35' E 002°09'1019.8
2017-Jun-19 19:00N 51°42' E 002°19'1020.3
2017-Jun-19 18:30N 51°50' E 002°29'1020.1
2017-Jun-19 18:00N 51°59' E 002°38'1121.2
2017-Jun-19 17:30N 52°10' E 002°37'1221.6
2017-Jun-19 16:56N 52°22' E 002°37'2121.7
2017-Jun-19 15:59N 52°42' E 002°37'1021.5
2017-Jun-19 15:30N 52°53' E 002°37'1121.6
2017-Jun-19 15:00N 53°04' E 002°38'1121.6
2017-Jun-19 14:30N 53°14' E 002°43'2220.9
2017-Jun-19 13:28N 53°34' E 002°56'1320.5
2017-Jun-19 12:51N 53°46' E 003°05'720.7
2017-Jun-19 12:30N 53°52' E 003°11'10020.4
2017-Jun-19 07:37N 55°30' E 003°41'320.6
2017-Jun-19 07:30N 55°33' E 003°41'1020.7
2017-Jun-19 06:59N 55°43' E 003°41'1120.9
2017-Jun-19 06:29N 55°53' E 003°41'1221.0
2017-Jun-19 05:55N 56°05' E 003°41'  

Dump ship's entire track history